createdAt,value
2019-04-12T00:02:13.726Z,9.10
2019-04-12T00:04:42.220Z,8.10
2019-04-12T00:07:10.686Z,7.57
2019-04-12T00:09:39.171Z,7.33
2019-04-12T00:12:07.911Z,7.83
2019-04-12T00:14:36.413Z,8.27
2019-04-12T00:17:04.884Z,7.50
2019-04-12T00:19:33.403Z,7.90
2019-04-12T00:22:01.850Z,10.47
2019-04-12T00:24:35.000Z,10.03
2019-04-12T00:27:00.553Z,7.67
2019-04-12T00:29:29.053Z,8.77
2019-04-12T00:31:57.516Z,9.43
2019-04-12T00:34:26.036Z,7.63
2019-04-12T00:36:54.628Z,10.20
2019-04-12T00:39:23.066Z,9.23
2019-04-12T00:41:51.639Z,8.97
2019-04-12T00:44:20.258Z,9.60
2019-04-12T00:46:49.340Z,7.83
2019-04-12T00:49:17.804Z,7.97
2019-04-12T00:51:46.387Z,7.80
2019-04-12T00:54:14.962Z,9.20
2019-04-12T00:56:46.141Z,10.17
2019-04-12T00:59:17.060Z,9.30
2019-04-12T01:01:48.535Z,9.63
2019-04-12T01:04:21.351Z,10.37
2019-04-12T01:06:50.003Z,10.83
2019-04-12T01:09:22.128Z,9.73
2019-04-12T01:11:49.013Z,9.87
2019-04-12T01:14:17.527Z,12.50
2019-04-12T01:16:46.112Z,10.37
2019-04-12T01:19:14.579Z,11.17
2019-04-12T01:21:43.587Z,9.33
2019-04-12T01:24:12.066Z,11.60
2019-04-12T01:26:40.559Z,11.93
2019-04-12T01:29:09.008Z,9.00
2019-04-12T01:31:37.622Z,11.70
2019-04-12T01:34:06.149Z,10.20
2019-04-12T01:36:34.729Z,11.30
2019-04-12T01:39:04.263Z,9.63
2019-04-12T01:41:32.732Z,12.87
2019-04-12T01:44:01.223Z,10.33
2019-04-12T01:46:29.696Z,11.13
2019-04-12T01:48:58.218Z,11.30
2019-04-12T01:51:26.701Z,10.23
2019-04-12T01:53:55.196Z,10.60
2019-04-12T01:56:23.665Z,9.73
2019-04-12T01:58:52.216Z,9.93
2019-04-12T02:01:20.949Z,9.67
2019-04-12T02:03:49.448Z,11.33
2019-04-12T02:06:17.979Z,11.50
2019-04-12T02:08:46.456Z,10.23
2019-04-12T02:11:14.942Z,11.17
2019-04-12T02:13:43.441Z,11.47
2019-04-12T02:16:11.922Z,11.20
2019-04-12T02:18:40.411Z,10.80
2019-04-12T02:21:09.505Z,11.47
2019-04-12T02:23:38.320Z,12.17
2019-04-12T02:26:06.803Z,11.13
2019-04-12T02:28:53.402Z,10.70
2019-04-12T02:31:28.760Z,10.57
2019-04-12T02:33:57.596Z,11.10
2019-04-12T02:36:27.733Z,10.57
2019-04-12T02:38:56.359Z,11.43
2019-04-12T02:41:25.754Z,9.47
2019-04-12T02:43:57.478Z,8.90
2019-04-12T02:46:29.739Z,9.80
2019-04-12T02:49:11.746Z,10.47
2019-04-12T02:51:49.975Z,11.63
2019-04-12T02:54:29.805Z,10.47
2019-04-12T02:57:00.685Z,10.73
2019-04-12T02:59:31.351Z,10.27
2019-04-12T03:02:01.528Z,10.33
2019-04-12T03:04:30.453Z,12.57
2019-04-12T03:06:59.616Z,10.77
2019-04-12T03:09:30.427Z,13.40
2019-04-12T03:12:01.468Z,13.10
2019-04-12T03:14:32.214Z,9.70
2019-04-12T03:17:02.454Z,9.87
2019-04-12T03:19:31.973Z,12.03
2019-04-12T03:22:01.106Z,10.70
2019-04-12T03:24:29.759Z,23.97
2019-04-12T03:26:58.419Z,11.00
2019-04-12T03:29:26.921Z,10.23
2019-04-12T03:31:55.931Z,12.07
2019-04-12T03:34:24.618Z,10.67
2019-04-12T03:36:53.374Z,10.70
2019-04-12T03:39:22.411Z,11.57
2019-04-12T03:41:51.549Z,9.77
2019-04-12T03:44:20.699Z,10.83
2019-04-12T03:46:49.469Z,10.30
2019-04-12T03:49:18.203Z,9.83
2019-04-12T03:51:47.366Z,11.73
2019-04-12T03:54:16.004Z,11.10
2019-04-12T03:56:44.949Z,9.30
2019-04-12T03:59:19.526Z,8.57
2019-04-12T04:01:51.660Z,11.40
2019-04-12T04:04:21.050Z,9.87
2019-04-12T04:06:49.710Z,8.70
2019-04-12T04:09:20.186Z,11.50
2019-04-12T04:11:49.158Z,11.13
2019-04-12T04:14:17.933Z,10.93
2019-04-12T04:16:51.733Z,9.77
2019-04-12T04:19:20.737Z,8.93
2019-04-12T04:21:59.274Z,8.10
2019-04-12T04:24:32.737Z,10.60
2019-04-12T04:27:20.630Z,9.27
2019-04-12T04:29:57.993Z,10.53
2019-04-12T04:32:31.151Z,9.57
2019-04-12T04:34:59.704Z,7.53
2019-04-12T04:37:28.663Z,10.17
2019-04-12T04:39:57.767Z,10.03
2019-04-12T04:42:26.687Z,9.57
2019-04-12T04:44:55.693Z,10.17
2019-04-12T04:47:24.585Z,8.07
2019-04-12T04:49:53.211Z,8.17
2019-04-12T04:52:21.870Z,7.73
2019-04-12T04:54:50.682Z,8.00
2019-04-12T04:57:19.552Z,8.33
2019-04-12T04:59:48.665Z,10.93
2019-04-12T05:02:17.404Z,10.77
2019-04-12T05:04:46.038Z,7.93
2019-04-12T05:07:14.600Z,5.87
2019-04-12T05:09:44.666Z,6.30
2019-04-12T05:12:13.439Z,7.77
2019-04-12T05:14:42.189Z,7.63
2019-04-12T05:17:11.233Z,7.97
2019-04-12T05:19:40.126Z,6.83
2019-04-12T05:22:09.205Z,6.37
2019-04-12T05:24:38.525Z,8.00
2019-04-12T05:27:07.361Z,11.43
2019-04-12T05:29:35.946Z,9.50
2019-04-12T05:32:05.489Z,7.27
2019-04-12T05:34:34.376Z,5.47
2019-04-12T05:37:10.150Z,6.87
2019-04-12T05:39:33.693Z,8.40
2019-04-12T05:42:02.165Z,5.23
2019-04-12T05:44:30.673Z,6.13
2019-04-12T05:47:00.784Z,5.87
2019-04-12T05:49:30.945Z,6.50
2019-04-12T05:51:59.762Z,5.80
2019-04-12T05:54:28.265Z,4.80
2019-04-12T05:56:57.453Z,12.93
2019-04-12T05:59:36.732Z,5.80
2019-04-12T06:02:20.465Z,6.67
2019-04-12T06:04:49.132Z,7.30
2019-04-12T06:07:17.617Z,6.07
2019-04-12T06:09:46.112Z,6.50
2019-04-12T06:12:15.312Z,7.27
2019-04-12T06:14:44.515Z,7.97
2019-04-12T06:17:13.507Z,5.30
2019-04-12T06:19:42.840Z,4.90
2019-04-12T06:22:12.922Z,6.83
2019-04-12T06:24:43.055Z,6.17
2019-04-12T06:27:13.157Z,5.47
2019-04-12T06:29:41.644Z,7.17
2019-04-12T06:32:10.646Z,4.80
2019-04-12T06:34:39.232Z,6.20
2019-04-12T06:37:07.869Z,4.23
2019-04-12T06:39:36.379Z,3.53
2019-04-12T06:42:04.919Z,5.20
2019-04-12T06:44:33.442Z,7.10
2019-04-12T06:47:01.998Z,5.87
2019-04-12T06:49:30.508Z,5.10
2019-04-12T06:51:59.097Z,7.43
2019-04-12T06:54:27.567Z,3.23
2019-04-12T06:56:57.863Z,4.97
2019-04-12T06:59:26.376Z,4.20
2019-04-12T07:02:11.651Z,6.37
2019-04-12T07:04:41.786Z,5.47
2019-04-12T07:07:10.258Z,3.77
2019-04-12T07:09:38.748Z,5.73
2019-04-12T07:12:07.389Z,4.63
2019-04-12T07:14:35.882Z,5.50
2019-04-12T07:17:04.360Z,4.60
2019-04-12T07:19:32.870Z,4.80
2019-04-12T07:22:01.345Z,4.43
2019-04-12T07:24:29.824Z,5.47
2019-04-12T07:26:58.308Z,4.37
2019-04-12T07:29:26.768Z,5.60
2019-04-12T07:31:55.247Z,7.53
2019-04-12T07:34:23.735Z,5.90
2019-04-12T07:36:52.230Z,8.50
2019-04-12T07:39:20.721Z,7.50
2019-04-12T07:41:49.222Z,4.77
2019-04-12T07:44:17.728Z,7.00
2019-04-12T07:46:46.213Z,4.70
2019-04-12T07:49:14.698Z,4.07
2019-04-12T07:51:47.513Z,4.97
2019-04-12T07:54:17.629Z,4.63
2019-04-12T07:56:46.399Z,4.23
2019-04-12T07:59:19.674Z,6.73
2019-04-12T08:01:52.537Z,4.13
2019-04-12T08:04:22.650Z,7.93
2019-04-12T08:06:52.804Z,5.03
2019-04-12T08:09:21.261Z,6.07
2019-04-12T08:11:49.840Z,7.17
2019-04-12T08:14:19.537Z,4.67
2019-04-12T08:16:49.279Z,4.67
2019-04-12T08:19:17.778Z,4.80
2019-04-12T08:21:46.324Z,4.77
2019-04-12T08:24:14.806Z,6.10
2019-04-12T08:26:43.697Z,5.27
2019-04-12T08:29:12.194Z,4.97
2019-04-12T08:31:40.692Z,5.83
2019-04-12T08:34:09.192Z,4.00
2019-04-12T08:36:37.688Z,3.43
2019-04-12T08:39:08.573Z,5.53
2019-04-12T08:41:37.075Z,4.57
2019-04-12T08:44:05.618Z,5.07
2019-04-12T08:46:34.112Z,3.60
2019-04-12T08:49:02.643Z,3.50
2019-04-12T08:51:31.165Z,5.50
2019-04-12T08:53:59.668Z,3.83
2019-04-12T08:56:28.243Z,3.00
2019-04-12T08:58:56.823Z,4.07
2019-04-12T09:01:25.296Z,6.73
2019-04-12T09:03:53.979Z,4.73
2019-04-12T09:06:22.612Z,3.87
2019-04-12T09:09:09.359Z,4.27
2019-04-12T09:11:37.922Z,7.13
2019-04-12T09:14:06.506Z,5.07
2019-04-12T09:16:35.074Z,5.20
2019-04-12T09:19:05.345Z,4.77
2019-04-12T09:21:41.502Z,5.37
2019-04-12T09:24:11.675Z,3.30
2019-04-12T09:26:40.146Z,4.17
2019-04-12T09:29:08.683Z,4.63
2019-04-12T09:31:37.152Z,4.87
2019-04-12T09:34:16.335Z,4.00
2019-04-12T09:36:36.216Z,3.57
2019-04-12T09:39:06.843Z,2.93
2019-04-12T09:41:35.357Z,4.20
2019-04-12T09:44:03.851Z,5.30
2019-04-12T09:46:32.362Z,4.13
2019-04-12T09:49:00.872Z,3.63
2019-04-12T09:51:29.380Z,9.77
2019-04-12T09:53:57.846Z,8.63
2019-04-12T09:56:26.349Z,4.73
2019-04-12T09:58:57.298Z,4.30
2019-04-12T10:01:24.995Z,3.37
2019-04-12T10:03:53.505Z,4.50
2019-04-12T10:06:22.007Z,3.27
2019-04-12T10:08:50.541Z,3.87
2019-04-12T10:11:19.029Z,3.73
2019-04-12T10:13:47.504Z,5.33
2019-04-12T10:16:15.974Z,4.80
2019-04-12T10:18:44.471Z,7.60
2019-04-12T10:21:12.957Z,4.87
2019-04-12T10:23:41.453Z,5.27
2019-04-12T10:26:09.918Z,4.03
2019-04-12T10:28:49.454Z,5.67
2019-04-12T10:31:08.876Z,4.53
2019-04-12T10:33:37.383Z,4.37
2019-04-12T10:36:05.835Z,4.33
2019-04-12T10:38:35.955Z,4.30
2019-04-12T10:41:06.176Z,4.43
2019-04-12T10:43:35.178Z,6.10
2019-04-12T10:46:05.267Z,6.37
2019-04-12T10:48:50.229Z,4.57
2019-04-12T10:51:20.349Z,4.83
2019-04-12T10:53:53.060Z,6.10
2019-04-12T10:56:21.581Z,5.10
2019-04-12T10:59:02.142Z,5.00
2019-04-12T11:01:22.468Z,7.17
2019-04-12T11:03:50.959Z,7.27
2019-04-12T11:06:30.088Z,4.27
2019-04-12T11:08:52.432Z,5.60
2019-04-12T11:11:20.910Z,3.90
2019-04-12T11:13:49.396Z,5.40
2019-04-12T11:16:17.895Z,4.77
2019-04-12T11:18:46.507Z,5.33
2019-04-12T11:21:15.023Z,4.57
2019-04-12T11:23:43.975Z,5.07
2019-04-12T11:26:12.468Z,7.67
2019-04-12T11:28:41.971Z,5.50
2019-04-12T11:31:10.559Z,6.10
2019-04-12T11:33:39.061Z,5.73
2019-04-12T11:36:07.577Z,5.23
2019-04-12T11:38:36.041Z,5.03
2019-04-12T11:41:04.869Z,8.43
2019-04-12T11:43:33.325Z,4.60
2019-04-12T11:46:02.298Z,6.07
2019-04-12T11:48:30.780Z,5.27
2019-04-12T11:50:59.272Z,5.33
2019-04-12T11:53:27.753Z,4.30
2019-04-12T11:55:56.241Z,6.30
2019-04-12T11:58:36.617Z,9.53
2019-04-12T12:00:56.778Z,10.27
2019-04-12T12:03:32.543Z,9.43
2019-04-12T12:06:08.784Z,11.53
2019-04-12T12:08:55.075Z,10.70
2019-04-12T12:11:31.267Z,9.63
2019-04-12T12:14:04.101Z,7.27
2019-04-12T12:16:46.052Z,8.30
2019-04-12T12:19:19.624Z,10.15
2019-04-12T12:21:48.180Z,9.60
2019-04-12T12:24:16.665Z,7.83
2019-04-12T12:26:45.180Z,7.23
2019-04-12T12:29:13.706Z,7.53
2019-04-12T12:31:42.261Z,9.23
2019-04-12T12:34:10.738Z,9.17
2019-04-12T12:36:39.257Z,10.53
2019-04-12T12:39:08.674Z,7.53
2019-04-12T12:41:37.175Z,9.00
2019-04-12T12:44:05.657Z,7.53
2019-04-12T12:46:34.251Z,7.90
2019-04-12T12:49:02.764Z,9.90
2019-04-12T12:51:31.233Z,11.30
2019-04-12T12:53:59.731Z,8.83
2019-04-12T12:56:28.250Z,10.93
2019-04-12T12:58:57.755Z,9.33
2019-04-12T13:01:26.273Z,8.63
2019-04-12T13:03:54.781Z,9.33
2019-04-12T13:06:23.266Z,10.03
2019-04-12T13:08:51.739Z,8.03
2019-04-12T13:11:20.226Z,8.87
2019-04-12T13:13:48.754Z,9.60
2019-04-12T13:16:17.281Z,8.97
2019-04-12T13:18:45.930Z,9.50
2019-04-12T13:21:14.415Z,9.13
2019-04-12T13:23:42.979Z,9.67
2019-04-12T13:26:11.425Z,11.90
2019-04-12T13:28:39.953Z,11.77
2019-04-12T13:31:26.203Z,10.77
2019-04-12T13:33:59.133Z,8.10
2019-04-12T13:36:29.260Z,10.23
2019-04-12T13:38:59.417Z,8.80
2019-04-12T13:41:27.896Z,11.00
2019-04-12T13:43:56.386Z,9.03
2019-04-12T13:46:24.865Z,9.63
2019-04-12T13:48:53.388Z,11.80
2019-04-12T13:51:21.926Z,8.73
2019-04-12T13:53:50.407Z,9.50
2019-04-12T13:56:18.885Z,9.60
2019-04-12T13:58:47.476Z,10.63
2019-04-12T14:01:16.111Z,8.00
2019-04-12T14:03:44.573Z,10.90
2019-04-12T14:06:13.068Z,10.00
2019-04-12T14:08:41.563Z,8.27
2019-04-12T14:11:10.039Z,8.70
2019-04-12T14:13:38.559Z,12.23
2019-04-12T14:16:07.173Z,9.10
2019-04-12T14:18:35.834Z,8.90
2019-04-12T14:21:04.311Z,9.23
2019-04-12T14:23:32.802Z,9.90
2019-04-12T14:26:01.450Z,9.33
2019-04-12T14:28:31.113Z,11.50
2019-04-12T14:31:04.145Z,8.67
2019-04-12T14:33:40.033Z,10.70
2019-04-12T14:36:26.351Z,8.53
2019-04-12T14:38:54.831Z,9.07
2019-04-12T14:41:23.444Z,9.67
2019-04-12T14:43:59.588Z,8.60
2019-04-12T14:46:29.729Z,10.83
2019-04-12T14:48:58.205Z,9.67
2019-04-12T14:51:26.684Z,12.73
2019-04-12T14:53:55.253Z,10.10
2019-04-12T14:56:23.749Z,12.53
2019-04-12T14:58:52.259Z,9.10
2019-04-12T15:01:22.152Z,10.37
2019-04-12T15:03:50.615Z,11.83
2019-04-12T15:06:19.137Z,9.77
2019-04-12T15:08:47.596Z,8.80
2019-04-12T15:11:16.167Z,10.60
2019-04-12T15:13:44.657Z,9.33
2019-04-12T15:16:13.181Z,9.93
2019-04-12T15:18:41.673Z,11.00
2019-04-12T15:21:10.151Z,9.67
2019-04-12T15:23:38.744Z,8.93
2019-04-12T15:26:07.271Z,10.37
2019-04-12T15:28:35.738Z,9.43
2019-04-12T15:31:04.324Z,10.17
2019-04-12T15:33:32.793Z,9.80
2019-04-12T15:36:02.639Z,10.00
2019-04-12T15:38:31.093Z,9.17
2019-04-12T15:40:59.599Z,10.27
2019-04-12T15:43:28.099Z,10.40
2019-04-12T15:45:56.581Z,9.80
2019-04-12T15:48:25.072Z,10.73
2019-04-12T15:50:53.577Z,10.13
2019-04-12T15:53:22.055Z,11.70
2019-04-12T15:55:50.565Z,11.67
2019-04-12T15:58:19.048Z,9.50
2019-04-12T16:01:10.819Z,11.73
2019-04-12T16:03:32.571Z,10.53
2019-04-12T16:06:02.001Z,12.03
2019-04-12T16:08:33.538Z,11.18
2019-04-12T16:11:10.714Z,11.43
2019-04-12T16:13:44.780Z,9.47
2019-04-12T16:16:33.066Z,13.67
2019-04-12T16:19:01.604Z,15.07
2019-04-12T16:21:30.232Z,12.40
2019-04-12T16:23:58.773Z,12.53
2019-04-12T16:26:27.357Z,10.67
2019-04-12T16:28:58.924Z,11.13
2019-04-12T16:31:29.029Z,9.77
2019-04-12T16:33:59.133Z,11.67
2019-04-12T16:36:29.359Z,12.57
2019-04-12T16:38:58.107Z,15.03
2019-04-12T16:41:26.613Z,11.93
2019-04-12T16:43:55.103Z,12.10
2019-04-12T16:46:33.760Z,10.13
2019-04-12T16:48:53.806Z,11.13
2019-04-12T16:51:22.294Z,11.03
2019-04-12T16:53:55.998Z,12.87
2019-04-12T16:56:24.504Z,11.63
2019-04-12T16:58:54.412Z,12.77
2019-04-12T17:01:35.764Z,14.33
2019-04-12T17:03:53.156Z,12.27
2019-04-12T17:06:21.653Z,13.40
2019-04-12T17:08:50.155Z,11.47
2019-04-12T17:11:18.739Z,12.00
2019-04-12T17:13:47.380Z,13.33
2019-04-12T17:16:15.849Z,12.93
2019-04-12T17:18:44.325Z,12.87
2019-04-12T17:21:13.136Z,13.17
2019-04-12T17:23:41.674Z,13.17
2019-04-12T17:26:10.150Z,11.77
2019-04-12T17:28:40.156Z,12.00
2019-04-12T17:31:08.629Z,11.87
2019-04-12T17:33:37.217Z,12.23
2019-04-12T17:36:05.705Z,11.63
2019-04-12T17:38:34.218Z,14.80
2019-04-12T17:41:02.742Z,10.00
2019-04-12T17:43:31.241Z,11.33
2019-04-12T17:45:59.827Z,11.37
2019-04-12T17:48:29.972Z,12.90
2019-04-12T17:50:59.871Z,15.37
2019-04-12T17:53:42.279Z,11.83
2019-04-12T17:56:12.411Z,12.20
2019-04-12T17:58:40.940Z,13.67
2019-04-12T18:01:29.460Z,13.07
2019-04-12T18:03:59.611Z,11.17
2019-04-12T18:06:28.174Z,14.77
2019-04-12T18:08:56.674Z,13.80
2019-04-12T18:11:32.830Z,13.87
2019-04-12T18:14:01.348Z,12.47
2019-04-12T18:16:29.832Z,16.83
2019-04-12T18:18:58.342Z,14.30
2019-04-12T18:21:26.852Z,15.00
2019-04-12T18:23:55.387Z,15.03
2019-04-12T18:26:23.870Z,12.90
2019-04-12T18:28:52.400Z,15.53
2019-04-12T18:31:20.982Z,16.00
2019-04-12T18:33:49.436Z,16.20
2019-04-12T18:36:17.938Z,16.80
2019-04-12T18:38:46.439Z,21.53
2019-04-12T18:41:14.978Z,17.50
2019-04-12T18:43:43.454Z,15.00
2019-04-12T18:46:11.984Z,12.83
2019-04-12T18:48:40.474Z,14.53
2019-04-12T18:51:09.036Z,12.70
2019-04-12T18:53:37.451Z,13.53
2019-04-12T18:56:05.968Z,13.67
2019-04-12T18:58:34.448Z,15.37
2019-04-12T19:01:03.009Z,14.63
2019-04-12T19:03:31.466Z,12.97
2019-04-12T19:06:00.030Z,11.60
2019-04-12T19:08:28.512Z,14.07
2019-04-12T19:10:57.028Z,16.23
2019-04-12T19:13:25.554Z,19.47
2019-04-12T19:15:54.192Z,16.10
2019-04-12T19:18:22.658Z,13.00
2019-04-12T19:20:51.152Z,13.63
2019-04-12T19:23:19.621Z,12.23
2019-04-12T19:25:48.306Z,14.80
2019-04-12T19:28:16.787Z,16.67
2019-04-12T19:30:46.955Z,14.30
2019-04-12T19:33:17.072Z,13.20
2019-04-12T19:35:50.282Z,15.33
2019-04-12T19:38:20.419Z,14.53
2019-04-12T19:40:50.013Z,15.63
2019-04-12T19:43:18.474Z,17.37
2019-04-12T19:45:46.951Z,15.03
2019-04-12T19:48:15.474Z,15.37
2019-04-12T19:50:43.961Z,13.97
2019-04-12T19:53:12.478Z,12.77
2019-04-12T19:55:41.045Z,13.20
2019-04-12T19:58:09.559Z,15.07
2019-04-12T20:00:38.119Z,15.73
2019-04-12T20:03:06.623Z,11.50
2019-04-12T20:05:35.105Z,26.77
2019-04-12T20:08:03.611Z,14.73
2019-04-12T20:10:32.166Z,16.30
2019-04-12T20:13:00.684Z,12.83
2019-04-12T20:15:29.162Z,20.50
2019-04-12T20:17:57.669Z,13.53
2019-04-12T20:20:26.168Z,14.63
2019-04-12T20:22:54.671Z,12.53
2019-04-12T20:25:23.173Z,12.87
2019-04-12T20:27:51.664Z,17.57
2019-04-12T20:30:20.236Z,14.23
2019-04-12T20:32:48.729Z,14.37
2019-04-12T20:35:17.275Z,11.97
2019-04-12T20:37:45.782Z,12.23
2019-04-12T20:40:14.372Z,11.70
2019-04-12T20:42:42.959Z,13.63
2019-04-12T20:45:11.536Z,13.97
2019-04-12T20:47:40.131Z,13.03
2019-04-12T20:50:08.948Z,12.77
2019-04-12T20:52:37.472Z,12.23
2019-04-12T20:55:06.870Z,13.33
2019-04-12T20:57:35.383Z,14.47
2019-04-12T21:00:05.912Z,10.67
2019-04-12T21:02:40.364Z,12.07
2019-04-12T21:05:05.629Z,12.17
2019-04-12T21:07:34.243Z,12.17
2019-04-12T21:10:02.742Z,12.93
2019-04-12T21:12:31.280Z,11.87
2019-04-12T21:14:59.809Z,12.33
2019-04-12T21:17:28.294Z,13.77
2019-04-12T21:19:56.800Z,14.57
2019-04-12T21:22:25.278Z,14.10
2019-04-12T21:24:53.835Z,11.93
2019-04-12T21:27:22.321Z,11.13
2019-04-12T21:29:50.848Z,12.63
2019-04-12T21:32:19.377Z,12.30
2019-04-12T21:34:47.929Z,13.83
2019-04-12T21:37:16.695Z,12.43
2019-04-12T21:39:45.221Z,12.00
2019-04-12T21:42:13.783Z,12.10
2019-04-12T21:44:42.310Z,14.70
2019-04-12T21:47:10.799Z,13.37
2019-04-12T21:49:43.470Z,13.93
2019-04-12T21:52:11.952Z,12.53
2019-04-12T21:54:40.509Z,15.00
2019-04-12T21:57:08.983Z,13.50
2019-04-12T21:59:37.477Z,13.80
2019-04-12T22:02:07.906Z,14.77
2019-04-12T22:04:36.902Z,15.13
2019-04-12T22:07:05.382Z,15.30
2019-04-12T22:09:33.914Z,12.17
2019-04-12T22:12:02.527Z,13.27
2019-04-12T22:14:31.023Z,13.30
2019-04-12T22:16:59.494Z,11.13
2019-04-12T22:19:27.982Z,11.87
2019-04-12T22:21:56.480Z,13.10
2019-04-12T22:24:25.002Z,15.50
2019-04-12T22:26:53.495Z,12.23
2019-04-12T22:29:22.002Z,12.77
2019-04-12T22:31:57.954Z,12.87
2019-04-12T22:34:26.465Z,13.67
2019-04-12T22:36:54.943Z,12.10
2019-04-12T22:39:23.479Z,12.27
2019-04-12T22:41:51.980Z,11.83
2019-04-12T22:44:20.486Z,10.60
2019-04-12T22:46:48.971Z,12.33
2019-04-12T22:49:17.515Z,10.83
2019-04-12T22:51:46.078Z,12.23
2019-04-12T22:54:14.560Z,13.60
2019-04-12T22:56:43.054Z,11.33
2019-04-12T22:59:11.555Z,11.73
2019-04-12T23:01:40.064Z,15.13
2019-04-12T23:04:08.543Z,12.43
2019-04-12T23:06:37.039Z,11.80
2019-04-12T23:09:06.945Z,11.97
2019-04-12T23:11:35.471Z,11.23
2019-04-12T23:14:03.984Z,15.50
2019-04-12T23:16:32.476Z,14.23
2019-04-12T23:19:00.958Z,12.37
2019-04-12T23:21:29.497Z,17.40
2019-04-12T23:23:57.980Z,12.10
2019-04-12T23:26:26.502Z,11.73
2019-04-12T23:28:55.044Z,12.40
2019-04-12T23:31:25.189Z,12.87
2019-04-12T23:33:55.309Z,14.70
2019-04-12T23:36:25.442Z,12.07
2019-04-12T23:38:53.926Z,12.70
2019-04-12T23:41:22.447Z,14.10
2019-04-12T23:43:50.928Z,13.10
2019-04-12T23:46:19.429Z,16.73
2019-04-12T23:48:47.911Z,13.73
2019-04-12T23:51:16.439Z,12.17
2019-04-12T23:53:44.931Z,13.37
2019-04-12T23:56:13.445Z,16.00
2019-04-12T23:58:41.943Z,16.57
